22. Mai 2022

Uhrzeit Code Wetter Temp. Sichtweite Wolken Wind METAR/SPECI
09:00
V
0 °C 10 km+ - Var   Var 3 kt METAR LFCR 220700Z AUTO VRB03KT CAVOK ///// Q1015 NOSIG
08:30
V
20 °C 10 km+ - 130°   130° 5 kt METAR LFCR 220630Z AUTO 13005KT CAVOK 20/13 Q1015 NOSIG
08:00
V
18 °C 10 km+ - 140°   140° 4 kt METAR LFCR 220600Z AUTO 14004KT CAVOK 18/14 Q1015 NOSIG
07:30
V
17 °C 10 km+ - 150°   150° 3 kt METAR LFCR 220530Z AUTO 15003KT CAVOK 17/14 Q1015 NOSIG
07:00
V
16 °C 10 km+ - 110°   110° 3 kt METAR LFCR 220500Z AUTO 11003KT CAVOK 16/14 Q1015 NOSIG
06:30
V
17 °C 10 km+ - Var   Var 2 kt METAR LFCR 220430Z AUTO VRB02KT CAVOK 17/14 Q1015 NOSIG
06:00
V
18 °C 10 km+ - 360°   360° 4 kt METAR LFCR 220400Z AUTO 36004KT CAVOK 18/14 Q1015 NOSIG
05:30
V
16 °C 10 km+ - 280°   280° 2 kt METAR LFCR 220330Z AUTO 28002KT CAVOK 16/14 Q1015 NOSIG
05:00
V
16 °C 10 km+ - 140°   140° 4 kt METAR LFCR 220300Z AUTO 14004KT CAVOK 16/14 Q1015 NOSIG
04:30
V
16 °C 10 km+ - 150°   150° 3 kt METAR LFCR 220230Z AUTO 15003KT CAVOK 16/14 Q1015 NOSIG
04:00
V
16 °C 10 km+ - 160°   160° 2 kt METAR LFCR 220200Z AUTO 16002KT CAVOK 16/14 Q1015 NOSIG
03:30
V
18 °C 10 km+ - 130°   130° 1 kt METAR LFCR 220130Z AUTO 13001KT CAVOK 18/14 Q1015 NOSIG
03:00
V
18 °C 10 km+ - Var   Var 2 kt METAR LFCR 220100Z AUTO VRB02KT CAVOK 18/15 Q1016 NOSIG
02:30
V
20 °C 10 km+ - 090°   090° 6 kt METAR LFCR 220030Z AUTO 09006KT CAVOK 20/15 Q1016 NOSIG
02:00
V
20 °C 10 km+ - 090°   090° 3 kt METAR LFCR 220000Z AUTO 09003KT CAVOK 20/16 Q1016 NOSIG
01:30
V
19 °C 10 km+ - Var   Var 2 kt METAR LFCR 212330Z AUTO VRB02KT CAVOK 19/15 Q1017 NOSIG
01:00
V
19 °C 10 km+ - 160°   160° 6 kt METAR LFCR 212300Z AUTO 16006KT CAVOK 19/15 Q1017 NOSIG
00:30
V
22 °C 10 km+ - 110°   110° 5 kt METAR LFCR 212230Z AUTO 11005KT CAVOK 22/15 Q1017 NOSIG
00:00
V
22 °C 10 km+ - 140°   140° 5 kt METAR LFCR 212200Z AUTO 14005KT CAVOK 22/16 Q1018 NOSIG

21. Mai 2022

Uhrzeit Code Wetter Temp. Sichtweite Wolken Wind METAR/SPECI
23:30
V
22 °C 10 km+ - Var   Var 3 kt METAR LFCR 212130Z AUTO VRB03KT CAVOK 22/16 Q1018 NOSIG
23:00
V
22 °C 10 km+ - 140°   140° 5 kt METAR LFCR 212100Z AUTO 14005KT CAVOK 22/16 Q1018 NOSIG
22:30
V
22 °C 10 km+ - 150°   150° 4 kt METAR LFCR 212030Z AUTO 15004KT CAVOK 22/16 Q1018 NOSIG
22:00
V
24 °C 10 km+ - 140°   140° 6 kt METAR LFCR 212000Z AUTO 14006KT CAVOK 24/17 Q1018 NOSIG
21:30
V
24 °C 10 km+ - 170°   170° 3 kt METAR LFCR 211930Z AUTO 17003KT CAVOK 24/18 Q1018 NOSIG
21:00
V
26 °C 10 km+ - 150°   150° 2 kt METAR LFCR 211900Z AUTO 15002KT CAVOK 26/19 Q1018 TEMPO 28010KT
20:30
V
27 °C 10 km+ - 310°   310° 3 kt METAR LFCR 211830Z AUTO 31003KT CAVOK 27/18 Q1018 NOSIG
20:00
V
28 °C 10 km+ - 340°   340° 3 kt METAR LFCR 211800Z AUTO 34003KT CAVOK 28/19 Q1018 TEMPO 28010KT
19:30
V
29 °C 10 km+ - 300°   300° 7 kt METAR LFCR 211730Z AUTO 30007KT CAVOK 29/19 Q1018 NOSIG
19:00
V
30 °C 10 km+ - 300°   300° 8 kt METAR LFCR 211700Z AUTO 30008KT CAVOK 30/18 Q1018 NOSIG
18:30
V
32 °C 10 km+ - 250°   250° 8 kt METAR LFCR 211630Z AUTO 25008KT 220V280 CAVOK 32/15 Q1018 NOSIG
18:00
V
33 °C 10 km+ - 240°   240° 8 kt METAR LFCR 211600Z AUTO 24008KT 200V270 9999 // NSC 33/14 Q1018
17:30
V
33 °C 10 km+ - 220°   220° 5 kt METAR LFCR 211530Z AUTO 22005KT 170V260 9999 // NSC 33/12 Q1018
17:00
V
33 °C 10 km+ - 180°   180° 6 kt METAR LFCR 211500Z AUTO 18006KT 140V240 9999 // NSC 33/13 Q1018
16:30
V
32 °C 10 km+ - 340°   340° 7 kt METAR LFCR 211430Z AUTO 34007KT 300V020 9999 // NSC 32/16 Q1019
16:00
V
33 °C 10 km+ - Var   Var 3 kt METAR LFCR 211400Z AUTO VRB03KT CAVOK 33/17 Q1019 NOSIG
15:30
V
31 °C 10 km+ - 340°   340° 5 kt METAR LFCR 211330Z AUTO 34005KT 220V030 CAVOK 31/16 Q1019 NOSIG
15:00
V
32 °C 10 km+ - 180°   180° 4 kt METAR LFCR 211300Z AUTO 18004KT 140V240 9999 // NSC 32/16 Q1020
14:30
V
31 °C 10 km+ - 350°   350° 4 kt METAR LFCR 211230Z AUTO 35004KT 290V040 CAVOK 31/18 Q1020 NOSIG
14:00
V
30 °C 10 km+ - 340°   340° 7 kt METAR LFCR 211200Z AUTO 34007KT 310V010 CAVOK 30/17 Q1020 NOSIG
13:30
V
29 °C 10 km+ - 330°   330° 5 kt METAR LFCR 211130Z AUTO 33005KT 280V020 CAVOK 29/16 Q1021 NOSIG
13:00
V
28 °C 10 km+ - Var   Var 3 kt METAR LFCR 211100Z AUTO VRB03KT CAVOK 28/16 Q1021 NOSIG
12:30
V
30 °C 10 km+ - 120°   120° 6 kt METAR LFCR 211030Z AUTO 12006KT 080V170 CAVOK 30/14 Q1021 NOSIG
12:00
V
28 °C 10 km+ - 120°   120° 5 kt METAR LFCR 211000Z AUTO 12005KT 070V180 CAVOK 28/14 Q1021 NOSIG
11:30
V
27 °C 10 km+ - 050°   050° 4 kt METAR LFCR 210930Z AUTO 05004KT 320V120 CAVOK 27/14 Q1021 NOSIG
11:00
V
26 °C 10 km+ - 080°   080° 3 kt METAR LFCR 210900Z AUTO 08003KT 040V160 CAVOK 26/13 Q1022 NOSIG
10:30
V
0 °C 10 km+ - 100°   100° 4 kt METAR LFCR 210830Z AUTO 10004KT 060V140 CAVOK ///// Q1022 NOSIG
10:00
V
0 °C 10 km+ - 100°   100° 4 kt METAR LFCR 210800Z AUTO 10004KT 060V160 CAVOK ///// Q1022 NOSIG
09:30
V
0 °C 10 km+ - 090°   090° 5 kt METAR LFCR 210730Z AUTO 09005KT 060V120 CAVOK ///// Q1022 NOSIG
09:00
V
0 °C 10 km+ - 090°   090° 3 kt METAR LFCR 210700Z AUTO 09003KT 050V130 CAVOK ///// Q1022 NOSIG
08:30
V
18 °C 10 km+ - Var   Var 3 kt METAR LFCR 210630Z AUTO VRB03KT CAVOK 18/11 Q1022 NOSIG
08:00
V
16 °C 10 km+ - 100°   100° 3 kt METAR LFCR 210600Z AUTO 10003KT CAVOK 16/10 Q1023 NOSIG
07:30
V
15 °C 10 km+ - 080°   080° 4 kt METAR LFCR 210530Z AUTO 08004KT CAVOK 15/10 Q1023 NOSIG
07:00
V
14 °C 10 km+ - 140°   140° 4 kt METAR LFCR 210500Z AUTO 14004KT CAVOK 14/10 Q1023 NOSIG
06:30
V
13 °C 10 km+ - 120°   120° 4 kt METAR LFCR 210430Z AUTO 12004KT CAVOK 13/09 Q1023 NOSIG
06:00
V
14 °C 10 km+ - 120°   120° 3 kt METAR LFCR 210400Z AUTO 12003KT CAVOK 14/09 Q1023 NOSIG
05:30
V
14 °C 10 km+ - 100°   100° 4 kt METAR LFCR 210330Z AUTO 10004KT CAVOK 14/10 Q1023 NOSIG
05:00
V
14 °C 10 km+ - 120°   120° 3 kt METAR LFCR 210300Z AUTO 12003KT CAVOK 14/10 Q1024 NOSIG
04:30
V
14 °C 10 km+ - 140°   140° 3 kt METAR LFCR 210230Z AUTO 14003KT 100V160 CAVOK 14/10 Q1024 NOSIG
04:00
V
15 °C 10 km+ - 090°   090° 4 kt METAR LFCR 210200Z AUTO 09004KT CAVOK 15/10 Q1024 NOSIG
03:30
V
16 °C 10 km+ - 100°   100° 2 kt METAR LFCR 210130Z AUTO 10002KT CAVOK 16/10 Q1024 NOSIG
03:00
V
16 °C 10 km+ - 130°   130° 3 kt METAR LFCR 210100Z AUTO 13003KT CAVOK 16/10 Q1024 NOSIG
02:30
V
16 °C 10 km+ - 130°   130° 3 kt METAR LFCR 210030Z AUTO 13003KT CAVOK 16/11 Q1024 NOSIG
02:00
V
17 °C 10 km+ - 130°   130° 4 kt METAR LFCR 210000Z AUTO 13004KT CAVOK 17/11 Q1025 NOSIG
01:30
V
17 °C 10 km+ - 130°   130° 3 kt METAR LFCR 202330Z AUTO 13003KT CAVOK 17/11 Q1025 NOSIG
01:00
V
17 °C 10 km+ - 140°   140° 4 kt METAR LFCR 202300Z AUTO 14004KT CAVOK 17/11 Q1025 NOSIG
00:30
V
17 °C 10 km+ - 150°   150° 3 kt METAR LFCR 202230Z AUTO 15003KT CAVOK 17/11 Q1025 NOSIG
00:00
V
18 °C 10 km+ - 160°   160° 3 kt METAR LFCR 202200Z AUTO 16003KT CAVOK 18/11 Q1025 NOSIG

20. Mai 2022

Uhrzeit Code Wetter Temp. Sichtweite Wolken Wind METAR/SPECI
23:30
V
18 °C 10 km+ - 130°   130° 6 kt METAR LFCR 202130Z AUTO 13006KT CAVOK 18/11 Q1025 NOSIG
23:00
V
19 °C 10 km+ - 130°   130° 5 kt METAR LFCR 202100Z AUTO 13005KT CAVOK 19/11 Q1025 NOSIG
22:30
V
20 °C 10 km+ - Var   Var 1 kt METAR LFCR 202030Z AUTO VRB01KT CAVOK 20/12 Q1025 NOSIG
22:00
V
20 °C 10 km+ - 150°   150° 4 kt METAR LFCR 202000Z AUTO 15004KT CAVOK 20/13 Q1025 NOSIG
21:30
V
20 °C 10 km+ - 180°   180° 4 kt METAR LFCR 201930Z AUTO 18004KT CAVOK 20/13 Q1025 NOSIG
21:00
V
22 °C 10 km+ - 150°   150° 3 kt METAR LFCR 201900Z AUTO 15003KT 120V190 CAVOK 22/13 Q1024 NOSIG
20:30
V
24 °C 10 km+ - 150°   150° 6 kt METAR LFCR 201830Z AUTO 15006KT CAVOK 24/14 Q1024 NOSIG
20:00
V
25 °C 10 km+ - 160°   160° 6 kt METAR LFCR 201800Z AUTO 16006KT CAVOK 25/14 Q1024 NOSIG
19:30
V
26 °C 10 km+ - 170°   170° 6 kt METAR LFCR 201730Z AUTO 17006KT CAVOK 26/14 Q1024 NOSIG
19:00
V
27 °C 10 km+ - 180°   180° 5 kt METAR LFCR 201700Z AUTO 18005KT 140V220 CAVOK 27/14 Q1024 NOSIG
18:30
V
27 °C 10 km+ - 190°   190° 6 kt METAR LFCR 201630Z AUTO 19006KT 150V230 CAVOK 27/14 Q1024 NOSIG
18:00
V
28 °C 10 km+ - 180°   180° 6 kt METAR LFCR 201600Z AUTO 18006KT 120V220 CAVOK 28/14 Q1024 NOSIG
17:30
V
27 °C 10 km+ - 190°   190° 7 kt METAR LFCR 201530Z AUTO 19007KT 140V210 CAVOK 27/13 Q1024 NOSIG
17:00
V
28 °C 10 km+ - 180°   180° 9 kt METAR LFCR 201500Z AUTO 18009KT CAVOK 28/13 Q1024 NOSIG
16:30
V
28 °C 10 km+ - 180°   180° 9 kt METAR LFCR 201430Z AUTO 18009KT 150V210 CAVOK 28/13 Q1024 NOSIG
16:00
V
28 °C 10 km+ - 190°   190° 9 kt METAR LFCR 201400Z AUTO 19009KT 160V230 CAVOK 28/13 Q1024 NOSIG
15:30
V
28 °C 10 km+ - 170°   170° 6 kt METAR LFCR 201330Z AUTO 17006KT 130V200 CAVOK 28/13 Q1024 NOSIG
15:00
V
28 °C 10 km+ - 130°   130° 11 kt METAR LFCR 201300Z AUTO 13011KT 090V160 CAVOK 28/13 Q1024 BECMG 24008KT
14:30
V
28 °C 8 km - 130°   130° 13 kt METAR LFCR 201230Z AUTO 13013KT 8000 NSC 28/12 Q1024 BECMG 24008KT
14:00
V
27 °C 9 km - 150°   150° 14 kt METAR LFCR 201200Z AUTO 15014KT 9000 NSC 27/13 Q1024 NOSIG
13:30
V
27 °C 9 km - 140°   140° 14 kt METAR LFCR 201130Z AUTO 14014KT 100V160 9000 NSC 27/13 Q1024 NOSIG
13:00
V
27 °C 9 km - 130°   130° 16 kt METAR LFCR 201100Z AUTO 13016KT 100V160 9000 FEW001 27/12 Q1023 BECMG 16006KT
12:30
V
26 °C 9 km - 130°   130° 18 kt METAR LFCR 201030Z AUTO 13018KT 9000 NSC 26/11 Q1023 BECMG 16006KT
12:00
V
27 °C 9 km - 130°   130° 18 kt METAR LFCR 201000Z AUTO 13018KT 9000 NSC 27/11 Q1023 BECMG 16006KT
11:30
V
26 °C 9 km - 130°   130° 18 kt METAR LFCR 200930Z AUTO 13018KT 9000 NSC 26/11 Q1023 BECMG 16006KT
11:00
V
25 °C 9 km - 130°   130° 21 kt METAR LFCR 200900Z AUTO 13021KT 9000 NSC 25/11 Q1023 TEMPO 14016G26KT
10:30
V
24 °C 9 km - 130°   130° 19 kt METAR LFCR 200830Z AUTO 13019KT 9000 FEW015 24/11 Q1023 TEMPO 14016G26KT
10:00
V
23 °C 10 km+ - 130°   130° 17 kt METAR LFCR 200800Z AUTO 13017KT 090V150 CAVOK 23/10 Q1023 TEMPO 14016G26KT
09:30
V
22 °C 10 km+ - 130°   130° 20 kt METAR LFCR 200730Z AUTO 13020KT CAVOK 22/10 Q1022 TEMPO 14016G26KT
09:00
V
22 °C 10 km+ - 120°   120° 20 kt METAR LFCR 200700Z AUTO 12020KT CAVOK 22/10 Q1023 TEMPO 14016G26KT
08:30
V
21 °C 10 km+ - 120°   120° 15 kt METAR LFCR 200630Z AUTO 12015KT CAVOK 21/10 Q1023 TEMPO 14016G26KT
08:00
V
20 °C 10 km+ - 120°   120° 16 kt METAR LFCR 200600Z AUTO 12016KT CAVOK 20/09 Q1023 TEMPO 14016G26KT
07:30
V
19 °C 10 km+ - 120°   120° 15 kt METAR LFCR 200530Z AUTO 12015KT CAVOK 19/09 Q1023 TEMPO 14016G26KT
07:00
V
19 °C 10 km+ - 120°   120° 14 kt METAR LFCR 200500Z AUTO 12014KT CAVOK 19/09 Q1022 TEMPO 14016G26KT
Ältere Daten

Laden Sie unsere App herunter

Einfacher Zugriff auf das gesamte Flugwetter auf Ihrem Mobiltelefon und Tablet.
Mit vielen Funktionen, die auf der Website nicht verfügbar sind, wie Offline-Unterstützung und eine persönliche Flughafenliste.

Wir und Dritte verfolgen dein Internetverhalten auf unserer Website mit Cookies. Wenn du fortfährst, gehen wir davon aus, dass du mit unserer Cookie-Richtlinie einverstanden bist. Mehr erfahren